sensor_id;sensor_type;location;lat;lon;timestamp;pressure;altitude;pressure_sealevel;temperature
14666;BMP280;7420;53.574;10.040;2023-02-28T00:01:23;102864.66;;;3.44
14666;BMP280;7420;53.574;10.040;2023-02-28T00:03:48;102867.41;;;3.42
14666;BMP280;7420;53.574;10.040;2023-02-28T00:06:14;102868.41;;;3.29
14666;BMP280;7420;53.574;10.040;2023-02-28T00:08:39;102865.16;;;3.26
14666;BMP280;7420;53.574;10.040;2023-02-28T00:11:07;102866.53;;;3.19
14666;BMP280;7420;53.574;10.040;2023-02-28T00:13:34;102861.47;;;3.28
14666;BMP280;7420;53.574;10.040;2023-02-28T00:16:05;102858.84;;;3.28
14666;BMP280;7420;53.574;10.040;2023-02-28T00:18:32;102858.88;;;3.16
14666;BMP280;7420;53.574;10.040;2023-02-28T00:20:58;102861.91;;;3.22
14666;BMP280;7420;53.574;10.040;2023-02-28T00:23:23;102868.72;;;3.25
14666;BMP280;7420;53.574;10.040;2023-02-28T00:25:50;102867.47;;;3.30
14666;BMP280;7420;53.574;10.040;2023-02-28T00:28:15;102868.28;;;3.31
14666;BMP280;7420;53.574;10.040;2023-02-28T00:30:40;102857.38;;;3.24
14666;BMP280;7420;53.574;10.040;2023-02-28T00:33:06;102863.94;;;3.06
14666;BMP280;7420;53.574;10.040;2023-02-28T00:35:31;102859.53;;;3.07
14666;BMP280;7420;53.574;10.040;2023-02-28T00:37:56;102861.97;;;3.10
14666;BMP280;7420;53.574;10.040;2023-02-28T00:40:22;102861.41;;;3.17
14666;BMP280;7420;53.574;10.040;2023-02-28T00:42:47;102861.63;;;3.14
14666;BMP280;7420;53.574;10.040;2023-02-28T00:45:13;102861.09;;;3.09
14666;BMP280;7420;53.574;10.040;2023-02-28T00:47:38;102866.88;;;3.14
14666;BMP280;7420;53.574;10.040;2023-02-28T00:50:04;102866.53;;;3.19
14666;BMP280;7420;53.574;10.040;2023-02-28T00:52:30;102864.97;;;3.16
14666;BMP280;7420;53.574;10.040;2023-02-28T00:54:55;102872.13;;;3.14
14666;BMP280;7420;53.574;10.040;2023-02-28T00:57:21;102866.13;;;3.12
14666;BMP280;7420;53.574;10.040;2023-02-28T00:59:46;102875.28;;;3.19
14666;BMP280;7420;53.574;10.040;2023-02-28T01:02:12;102861.75;;;3.13
14666;BMP280;7420;53.574;10.040;2023-02-28T01:04:37;102868.97;;;3.09
14666;BMP280;7420;53.574;10.040;2023-02-28T01:07:02;102885.41;;;3.00
14666;BMP280;7420;53.574;10.040;2023-02-28T01:09:28;102876.69;;;3.00
14666;BMP280;7420;53.574;10.040;2023-02-28T01:11:53;102883.19;;;2.94
14666;BMP280;7420;53.574;10.040;2023-02-28T01:14:19;102876.38;;;2.92
14666;BMP280;7420;53.574;10.040;2023-02-28T01:16:44;102880.81;;;2.91
14666;BMP280;7420;53.574;10.040;2023-02-28T01:19:10;102880.91;;;2.90
14666;BMP280;7420;53.574;10.040;2023-02-28T01:21:36;102880.56;;;2.94
14666;BMP280;7420;53.574;10.040;2023-02-28T01:24:02;102887.50;;;2.95
14666;BMP280;7420;53.574;10.040;2023-02-28T01:26:28;102899.69;;;2.96
14666;BMP280;7420;53.574;10.040;2023-02-28T01:28:53;102885.53;;;2.99
14666;BMP280;7420;53.574;10.040;2023-02-28T01:31:20;102887.28;;;2.98
14666;BMP280;7420;53.574;10.040;2023-02-28T01:33:46;102883.94;;;2.96
14666;BMP280;7420;53.574;10.040;2023-02-28T01:36:21;102885.81;;;2.94
14666;BMP280;7420;53.574;10.040;2023-02-28T01:38:47;102884.41;;;2.90
14666;BMP280;7420;53.574;10.040;2023-02-28T01:41:21;102886.28;;;2.88
14666;BMP280;7420;53.574;10.040;2023-02-28T01:46:13;102876.50;;;2.90
14666;BMP280;7420;53.574;10.040;2023-02-28T01:48:44;102878.91;;;2.81
14666;BMP280;7420;53.574;10.040;2023-02-28T01:51:14;102881.47;;;2.82
14666;BMP280;7420;53.574;10.040;2023-02-28T01:53:48;102875.78;;;2.88
14666;BMP280;7420;53.574;10.040;2023-02-28T01:56:19;102871.38;;;2.76
14666;BMP280;7420;53.574;10.040;2023-02-28T01:58:50;102870.31;;;2.66
14666;BMP280;7420;53.574;10.040;2023-02-28T02:01:16;102867.63;;;2.68
14666;BMP280;7420;53.574;10.040;2023-02-28T02:03:48;102874.84;;;2.64
14666;BMP280;7420;53.574;10.040;2023-02-28T02:06:29;102879.34;;;2.75
14666;BMP280;7420;53.574;10.040;2023-02-28T02:08:55;102881.66;;;2.79
14666;BMP280;7420;53.574;10.040;2023-02-28T02:11:22;102876.50;;;2.78
14666;BMP280;7420;53.574;10.040;2023-02-28T02:14:10;102874.34;;;2.72
14666;BMP280;7420;53.574;10.040;2023-02-28T02:16:53;102873.19;;;2.51
14666;BMP280;7420;53.574;10.040;2023-02-28T02:28:04;102867.91;;;2.63
14666;BMP280;7420;53.574;10.040;2023-02-28T02:39:06;102858.47;;;2.36
14666;BMP280;7420;53.574;10.040;2023-02-28T02:42:09;102861.53;;;2.30
14666;BMP280;7420;53.574;10.040;2023-02-28T02:44:32;102855.03;;;2.23
14666;BMP280;7420;53.574;10.040;2023-02-28T02:47:12;102859.41;;;2.22
14666;BMP280;7420;53.574;10.040;2023-02-28T02:49:42;102862.25;;;2.20
14666;BMP280;7420;53.574;10.040;2023-02-28T02:52:10;102864.66;;;2.10
14666;BMP280;7420;53.574;10.040;2023-02-28T02:54:40;102864.63;;;1.98
14666;BMP280;7420;53.574;10.040;2023-02-28T02:57:10;102854.78;;;2.01
14666;BMP280;7420;53.574;10.040;2023-02-28T02:59:41;102856.63;;;1.87
14666;BMP280;7420;53.574;10.040;2023-02-28T03:02:10;102849.69;;;1.73
14666;BMP280;7420;53.574;10.040;2023-02-28T03:04:42;102844.41;;;1.61
14666;BMP280;7420;53.574;10.040;2023-02-28T03:07:08;102859.06;;;1.51
14666;BMP280;7420;53.574;10.040;2023-02-28T03:09:34;102859.56;;;1.43
14666;BMP280;7420;53.574;10.040;2023-02-28T03:12:08;102865.97;;;1.52
14666;BMP280;7420;53.574;10.040;2023-02-28T03:14:56;102864.84;;;1.56
14666;BMP280;7420;53.574;10.040;2023-02-28T03:17:29;102864.56;;;1.34
14666;BMP280;7420;53.574;10.040;2023-02-28T03:20:07;102865.94;;;1.39
14666;BMP280;7420;53.574;10.040;2023-02-28T03:23:10;102860.47;;;1.30
14666;BMP280;7420;53.574;10.040;2023-02-28T03:25:50;102867.22;;;1.20
14666;BMP280;7420;53.574;10.040;2023-02-28T03:28:36;102864.41;;;1.09
14666;BMP280;7420;53.574;10.040;2023-02-28T03:33:38;102865.22;;;1.23
14666;BMP280;7420;53.574;10.040;2023-02-28T03:36:12;102860.94;;;1.22
14666;BMP280;7420;53.574;10.040;2023-02-28T03:38:49;102876.19;;;1.30
14666;BMP280;7420;53.574;10.040;2023-02-28T03:41:23;102870.03;;;1.17
14666;BMP280;7420;53.574;10.040;2023-02-28T03:43:56;102866.66;;;1.15
14666;BMP280;7420;53.574;10.040;2023-02-28T03:46:25;102864.16;;;1.13
14666;BMP280;7420;53.574;10.040;2023-02-28T03:51:28;102869.34;;;0.87
14666;BMP280;7420;53.574;10.040;2023-02-28T03:53:58;102867.91;;;0.82
14666;BMP280;7420;53.574;10.040;2023-02-28T03:56:31;102872.53;;;0.92
14666;BMP280;7420;53.574;10.040;2023-02-28T03:59:09;102868.41;;;0.88
14666;BMP280;7420;53.574;10.040;2023-02-28T04:01:39;102871.97;;;0.87
14666;BMP280;7420;53.574;10.040;2023-02-28T04:04:07;102874.75;;;0.84
14666;BMP280;7420;53.574;10.040;2023-02-28T04:06:34;102878.41;;;0.82
14666;BMP280;7420;53.574;10.040;2023-02-28T04:08:59;102878.50;;;0.80
14666;BMP280;7420;53.574;10.040;2023-02-28T04:11:44;102878.69;;;0.77
14666;BMP280;7420;53.574;10.040;2023-02-28T04:14:11;102879.56;;;0.78
14666;BMP280;7420;53.574;10.040;2023-02-28T04:16:39;102874.56;;;0.73
14666;BMP280;7420;53.574;10.040;2023-02-28T04:19:07;102878.31;;;0.69
14666;BMP280;7420;53.574;10.040;2023-02-28T04:21:35;102881.13;;;0.66
14666;BMP280;7420;53.574;10.040;2023-02-28T04:24:02;102885.59;;;0.64
14666;BMP280;7420;53.574;10.040;2023-02-28T04:26:33;102885.25;;;0.56
14666;BMP280;7420;53.574;10.040;2023-02-28T04:28:59;102885.44;;;0.53
14666;BMP280;7420;53.574;10.040;2023-02-28T04:31:25;102878.41;;;0.54
14666;BMP280;7420;53.574;10.040;2023-02-28T04:33:50;102881.50;;;0.46
14666;BMP280;7420;53.574;10.040;2023-02-28T04:36:16;102871.97;;;0.45
14666;BMP280;7420;53.574;10.040;2023-02-28T04:38:45;102880.47;;;0.49
14666;BMP280;7420;53.574;10.040;2023-02-28T04:41:12;102875.22;;;0.49
14666;BMP280;7420;53.574;10.040;2023-02-28T04:43:37;102889.25;;;0.48
14666;BMP280;7420;53.574;10.040;2023-02-28T04:46:05;102880.19;;;0.39
14666;BMP280;7420;53.574;10.040;2023-02-28T04:48:33;102882.59;;;0.28
14666;BMP280;7420;53.574;10.040;2023-02-28T04:51:02;102875.84;;;0.24
14666;BMP280;7420;53.574;10.040;2023-02-28T04:53:29;102880.16;;;0.11
14666;BMP280;7420;53.574;10.040;2023-02-28T04:55:55;102886.78;;;0.17
14666;BMP280;7420;53.574;10.040;2023-02-28T04:58:21;102883.16;;;0.19
14666;BMP280;7420;53.574;10.040;2023-02-28T05:00:49;102886.78;;;0.17
14666;BMP280;7420;53.574;10.040;2023-02-28T05:03:14;102889.19;;;0.06
14666;BMP280;7420;53.574;10.040;2023-02-28T05:05:40;102887.59;;;0.03
14666;BMP280;7420;53.574;10.040;2023-02-28T05:08:05;102884.97;;;0.03
14666;BMP280;7420;53.574;10.040;2023-02-28T05:10:31;102879.53;;;-0.07
14666;BMP280;7420;53.574;10.040;2023-02-28T05:12:56;102890.66;;;-0.04
14666;BMP280;7420;53.574;10.040;2023-02-28T05:15:22;102897.41;;;0.00
14666;BMP280;7420;53.574;10.040;2023-02-28T05:17:47;102891.25;;;-0.14
14666;BMP280;7420;53.574;10.040;2023-02-28T05:20:13;102895.25;;;-0.23
14666;BMP280;7420;53.574;10.040;2023-02-28T05:22:39;102901.66;;;-0.13
14666;BMP280;7420;53.574;10.040;2023-02-28T05:25:05;102893.88;;;-0.14
14666;BMP280;7420;53.574;10.040;2023-02-28T05:27:31;102899.13;;;-0.14
14666;BMP280;7420;53.574;10.040;2023-02-28T05:29:56;102888.66;;;-0.14
14666;BMP280;7420;53.574;10.040;2023-02-28T05:32:22;102903.03;;;-0.21
14666;BMP280;7420;53.574;10.040;2023-02-28T05:34:47;102910.28;;;-0.26
14666;BMP280;7420;53.574;10.040;2023-02-28T05:37:14;102903.97;;;-0.22
14666;BMP280;7420;53.574;10.040;2023-02-28T05:39:41;102898.31;;;-0.30
14666;BMP280;7420;53.574;10.040;2023-02-28T05:42:06;102890.69;;;-0.19
14666;BMP280;7420;53.574;10.040;2023-02-28T05:44:32;102896.78;;;-0.19
14666;BMP280;7420;53.574;10.040;2023-02-28T05:46:57;102886.50;;;-0.22
14666;BMP280;7420;53.574;10.040;2023-02-28T05:49:22;102888.28;;;-0.22
14666;BMP280;7420;53.574;10.040;2023-02-28T05:51:48;102899.84;;;-0.26
14666;BMP280;7420;53.574;10.040;2023-02-28T05:54:13;102904.88;;;-0.39
14666;BMP280;7420;53.574;10.040;2023-02-28T05:56:38;102911.63;;;-0.35
14666;BMP280;7420;53.574;10.040;2023-02-28T05:59:06;102910.97;;;-0.38
14666;BMP280;7420;53.574;10.040;2023-02-28T06:01:34;102911.16;;;-0.41
14666;BMP280;7420;53.574;10.040;2023-02-28T06:04:01;102912.66;;;-0.37
14666;BMP280;7420;53.574;10.040;2023-02-28T06:06:27;102904.06;;;-0.39
14666;BMP280;7420;53.574;10.040;2023-02-28T06:08:53;102910.53;;;-0.31
14666;BMP280;7420;53.574;10.040;2023-02-28T06:11:19;102902.28;;;-0.39
14666;BMP280;7420;53.574;10.040;2023-02-28T06:13:45;102914.94;;;-0.31
14666;BMP280;7420;53.574;10.040;2023-02-28T06:16:11;102917.91;;;-0.37
14666;BMP280;7420;53.574;10.040;2023-02-28T06:18:37;102917.22;;;-0.41
14666;BMP280;7420;53.574;10.040;2023-02-28T06:21:03;102923.88;;;-0.35
14666;BMP280;7420;53.574;10.040;2023-02-28T06:23:28;102916.34;;;-0.26
14666;BMP280;7420;53.574;10.040;2023-02-28T06:25:54;102923.19;;;-0.23
14666;BMP280;7420;53.574;10.040;2023-02-28T06:28:23;102928.63;;;-0.12
14666;BMP280;7420;53.574;10.040;2023-02-28T06:30:49;102921.78;;;-0.44
14666;BMP280;7420;53.574;10.040;2023-02-28T06:33:14;102931.22;;;-0.57
14666;BMP280;7420;53.574;10.040;2023-02-28T06:35:39;102933.31;;;-0.48
14666;BMP280;7420;53.574;10.040;2023-02-28T06:38:08;102937.28;;;-0.41
14666;BMP280;7420;53.574;10.040;2023-02-28T06:40:33;102936.09;;;-0.51
14666;BMP280;7420;53.574;10.040;2023-02-28T06:43:00;102934.53;;;-0.54
14666;BMP280;7420;53.574;10.040;2023-02-28T06:45:26;102944.38;;;-0.43
14666;BMP280;7420;53.574;10.040;2023-02-28T06:47:51;102937.13;;;-0.38
14666;BMP280;7420;53.574;10.040;2023-02-28T06:50:18;102936.00;;;-0.34
14666;BMP280;7420;53.574;10.040;2023-02-28T06:52:44;102932.31;;;-0.30
14666;BMP280;7420;53.574;10.040;2023-02-28T06:55:10;102933.50;;;-0.06
14666;BMP280;7420;53.574;10.040;2023-02-28T06:57:36;102943.16;;;-0.07
14666;BMP280;7420;53.574;10.040;2023-02-28T07:00:06;102941.31;;;-0.20
14666;BMP280;7420;53.574;10.040;2023-02-28T07:02:34;102947.66;;;-0.24
14666;BMP280;7420;53.574;10.040;2023-02-28T07:04:59;102946.47;;;-0.34
14666;BMP280;7420;53.574;10.040;2023-02-28T07:07:25;102943.88;;;-0.34
14666;BMP280;7420;53.574;10.040;2023-02-28T07:09:50;102950.59;;;-0.30
14666;BMP280;7420;53.574;10.040;2023-02-28T07:12:16;102959.03;;;-0.25
14666;BMP280;7420;53.574;10.040;2023-02-28T07:14:41;102947.22;;;-0.32
14666;BMP280;7420;53.574;10.040;2023-02-28T07:17:08;102951.59;;;-0.33
14666;BMP280;7420;53.574;10.040;2023-02-28T07:19:34;102949.97;;;-0.04
14666;BMP280;7420;53.574;10.040;2023-02-28T07:21:59;102949.56;;;-0.12
14666;BMP280;7420;53.574;10.040;2023-02-28T07:24:24;102950.47;;;-0.13
14666;BMP280;7420;53.574;10.040;2023-02-28T07:26:53;102959.53;;;-0.19
14666;BMP280;7420;53.574;10.040;2023-02-28T07:29:18;102958.38;;;0.00
14666;BMP280;7420;53.574;10.040;2023-02-28T07:31:44;102949.78;;;-0.02
14666;BMP280;7420;53.574;10.040;2023-02-28T07:34:09;102953.56;;;0.08
14666;BMP280;7420;53.574;10.040;2023-02-28T07:36:34;102954.31;;;0.10
14666;BMP280;7420;53.574;10.040;2023-02-28T07:39:00;102947.81;;;0.17
14666;BMP280;7420;53.574;10.040;2023-02-28T07:41:25;102953.94;;;0.46
14666;BMP280;7420;53.574;10.040;2023-02-28T07:43:55;102955.19;;;0.54
14666;BMP280;7420;53.574;10.040;2023-02-28T07:46:22;102954.44;;;0.52
14666;BMP280;7420;53.574;10.040;2023-02-28T07:48:47;102956.00;;;0.55
14666;BMP280;7420;53.574;10.040;2023-02-28T07:51:13;102952.94;;;0.62
14666;BMP280;7420;53.574;10.040;2023-02-28T07:53:39;102956.50;;;0.75
14666;BMP280;7420;53.574;10.040;2023-02-28T07:56:04;102961.56;;;0.78
14666;BMP280;7420;53.574;10.040;2023-02-28T07:58:30;102961.19;;;0.84
14666;BMP280;7420;53.574;10.040;2023-02-28T08:00:55;102959.31;;;0.86
14666;BMP280;7420;53.574;10.040;2023-02-28T08:03:22;102961.66;;;0.91
14666;BMP280;7420;53.574;10.040;2023-02-28T08:05:49;102971.13;;;0.93
14666;BMP280;7420;53.574;10.040;2023-02-28T08:08:15;102964.34;;;1.03
14666;BMP280;7420;53.574;10.040;2023-02-28T08:10:42;102961.63;;;1.18
14666;BMP280;7420;53.574;10.040;2023-02-28T08:13:07;102963.97;;;1.23
14666;BMP280;7420;53.574;10.040;2023-02-28T08:15:32;102963.13;;;1.22
14666;BMP280;7420;53.574;10.040;2023-02-28T08:17:58;102971.84;;;1.37
14666;BMP280;7420;53.574;10.040;2023-02-28T08:20:24;102976.03;;;1.39
14666;BMP280;7420;53.574;10.040;2023-02-28T08:22:50;102974.03;;;1.43
14666;BMP280;7420;53.574;10.040;2023-02-28T08:25:15;102978.16;;;1.61
14666;BMP280;7420;53.574;10.040;2023-02-28T08:27:41;102977.75;;;1.67
14666;BMP280;7420;53.574;10.040;2023-02-28T08:30:08;102971.81;;;1.77
14666;BMP280;7420;53.574;10.040;2023-02-28T08:32:34;102970.84;;;1.92
14666;BMP280;7420;53.574;10.040;2023-02-28T08:35:00;102971.66;;;1.93
14666;BMP280;7420;53.574;10.040;2023-02-28T08:37:25;102971.66;;;1.93
14666;BMP280;7420;53.574;10.040;2023-02-28T08:39:51;102976.13;;;2.05
14666;BMP280;7420;53.574;10.040;2023-02-28T08:42:16;102973.84;;;2.13
14666;BMP280;7420;53.574;10.040;2023-02-28T08:44:41;102979.28;;;2.10
14666;BMP280;7420;53.574;10.040;2023-02-28T08:47:07;102977.53;;;2.22
14666;BMP280;7420;53.574;10.040;2023-02-28T08:49:32;102972.53;;;2.32
14666;BMP280;7420;53.574;10.040;2023-02-28T08:51:58;102977.88;;;2.43
14666;BMP280;7420;53.574;10.040;2023-02-28T08:54:24;102969.91;;;2.44
14666;BMP280;7420;53.574;10.040;2023-02-28T08:56:49;102978.22;;;2.63
14666;BMP280;7420;53.574;10.040;2023-02-28T08:59:15;102976.25;;;2.67
14666;BMP280;7420;53.574;10.040;2023-02-28T09:01:40;102976.25;;;2.79
14666;BMP280;7420;53.574;10.040;2023-02-28T09:04:09;102982.66;;;2.88
14666;BMP280;7420;53.574;10.040;2023-02-28T09:06:35;102974.75;;;3.00
14666;BMP280;7420;53.574;10.040;2023-02-28T09:09:01;102980.31;;;3.08
14666;BMP280;7420;53.574;10.040;2023-02-28T09:11:27;102988.22;;;3.08
14666;BMP280;7420;53.574;10.040;2023-02-28T09:13:53;102983.06;;;3.19
14666;BMP280;7420;53.574;10.040;2023-02-28T09:16:18;102988.19;;;3.33
14666;BMP280;7420;53.574;10.040;2023-02-28T09:18:44;102985.84;;;3.41
14666;BMP280;7420;53.574;10.040;2023-02-28T09:21:12;102991.56;;;3.58
14666;BMP280;7420;53.574;10.040;2023-02-28T09:23:42;102978.63;;;3.68
14666;BMP280;7420;53.574;10.040;2023-02-28T09:26:16;102998.34;;;3.86
14666;BMP280;7420;53.574;10.040;2023-02-28T09:28:42;102987.84;;;3.73
14666;BMP280;7420;53.574;10.040;2023-02-28T09:31:12;102991.22;;;3.75
14666;BMP280;7420;53.574;10.040;2023-02-28T09:33:38;102994.22;;;3.82
14666;BMP280;7420;53.574;10.040;2023-02-28T09:36:04;102988.31;;;3.91
14666;BMP280;7420;53.574;10.040;2023-02-28T09:38:29;102993.44;;;3.92
14666;BMP280;7420;53.574;10.040;2023-02-28T09:40:58;103002.72;;;3.98
14666;BMP280;7420;53.574;10.040;2023-02-28T09:43:26;102995.84;;;4.08
14666;BMP280;7420;53.574;10.040;2023-02-28T09:46:40;102994.88;;;4.09
14666;BMP280;7420;53.574;10.040;2023-02-28T09:48:44;103006.84;;;4.13
14666;BMP280;7420;53.574;10.040;2023-02-28T09:53:57;103008.06;;;4.20
14666;BMP280;7420;53.574;10.040;2023-02-28T09:56:41;103005.56;;;4.18
14666;BMP280;7420;53.574;10.040;2023-02-28T09:59:36;103009.53;;;4.24
14666;BMP280;7420;53.574;10.040;2023-02-28T10:02:41;103013.91;;;4.36
14666;BMP280;7420;53.574;10.040;2023-02-28T10:05:15;103009.22;;;4.39
14666;BMP280;7420;53.574;10.040;2023-02-28T10:10:39;103006.94;;;4.35
14666;BMP280;7420;53.574;10.040;2023-02-28T10:13:23;103002.72;;;4.32
14666;BMP280;7420;53.574;10.040;2023-02-28T10:15:54;102999.59;;;4.51
14666;BMP280;7420;53.574;10.040;2023-02-28T10:18:25;102998.28;;;4.56
14666;BMP280;7420;53.574;10.040;2023-02-28T10:20:53;102999.41;;;4.75
14666;BMP280;7420;53.574;10.040;2023-02-28T10:23:28;102997.16;;;4.93
14666;BMP280;7420;53.574;10.040;2023-02-28T10:26:21;102997.50;;;4.88
14666;BMP280;7420;53.574;10.040;2023-02-28T10:28:46;102992.56;;;4.73
14666;BMP280;7420;53.574;10.040;2023-02-28T10:31:18;102993.16;;;4.65
14666;BMP280;7420;53.574;10.040;2023-02-28T10:33:44;103002.06;;;4.86
14666;BMP280;7420;53.574;10.040;2023-02-28T10:38:59;102995.69;;;4.78
14666;BMP280;7420;53.574;10.040;2023-02-28T10:41:30;102998.69;;;4.95
14666;BMP280;7420;53.574;10.040;2023-02-28T10:44:22;102995.47;;;5.25
14666;BMP280;7420;53.574;10.040;2023-02-28T10:46:49;102993.47;;;5.17
14666;BMP280;7420;53.574;10.040;2023-02-28T10:49:23;102993.19;;;4.98
14666;BMP280;7420;53.574;10.040;2023-02-28T10:51:52;102989.84;;;5.07
14666;BMP280;7420;53.574;10.040;2023-02-28T10:54:32;102994.16;;;5.41
14666;BMP280;7420;53.574;10.040;2023-02-28T10:57:20;102993.31;;;5.30
14666;BMP280;7420;53.574;10.040;2023-02-28T10:59:50;102995.03;;;5.09
14666;BMP280;7420;53.574;10.040;2023-02-28T11:04:56;102995.94;;;5.63
14666;BMP280;7420;53.574;10.040;2023-02-28T11:07:23;102998.56;;;5.63
14666;BMP280;7420;53.574;10.040;2023-02-28T11:09:54;102998.34;;;5.55
14666;BMP280;7420;53.574;10.040;2023-02-28T11:15:00;102993.63;;;5.91
14666;BMP280;7420;53.574;10.040;2023-02-28T11:17:29;102994.34;;;6.24
14666;BMP280;7420;53.574;10.040;2023-02-28T11:20:05;102991.16;;;6.62
14666;BMP280;7420;53.574;10.040;2023-02-28T11:22:36;102990.06;;;6.64
14666;BMP280;7420;53.574;10.040;2023-02-28T11:25:09;102982.19;;;6.33
14666;BMP280;7420;53.574;10.040;2023-02-28T11:30:30;102985.28;;;6.38
14666;BMP280;7420;53.574;10.040;2023-02-28T11:32:56;102988.78;;;7.09
14666;BMP280;7420;53.574;10.040;2023-02-28T11:37:55;102978.78;;;6.62
14666;BMP280;7420;53.574;10.040;2023-02-28T11:43:27;102973.03;;;6.78
14666;BMP280;7420;53.574;10.040;2023-02-28T11:45:59;102974.31;;;7.13
14666;BMP280;7420;53.574;10.040;2023-02-28T11:51:27;102966.75;;;7.38
14666;BMP280;7420;53.574;10.040;2023-02-28T11:56:55;102970.34;;;8.05
14666;BMP280;7420;53.574;10.040;2023-02-28T12:11:19;102955.25;;;9.44
14666;BMP280;7420;53.574;10.040;2023-02-28T12:13:26;102952.41;;;9.55
14666;BMP280;7420;53.574;10.040;2023-02-28T12:27:36;102931.44;;;11.08
14666;BMP280;7420;53.574;10.040;2023-02-28T12:30:05;102922.78;;;10.80
14666;BMP280;7420;53.574;10.040;2023-02-28T12:32:37;102928.38;;;11.44
14666;BMP280;7420;53.574;10.040;2023-02-28T12:37:45;102923.59;;;11.47
14666;BMP280;7420;53.574;10.040;2023-02-28T12:40:21;102930.03;;;12.02
14666;BMP280;7420;53.574;10.040;2023-02-28T12:42:53;102918.69;;;11.76
14666;BMP280;7420;53.574;10.040;2023-02-28T12:45:24;102914.38;;;11.83
14666;BMP280;7420;53.574;10.040;2023-02-28T12:47:56;102906.88;;;12.27
14666;BMP280;7420;53.574;10.040;2023-02-28T12:50:22;102905.06;;;12.35
14666;BMP280;7420;53.574;10.040;2023-02-28T12:58:26;102899.94;;;12.96
14666;BMP280;7420;53.574;10.040;2023-02-28T13:04:05;102885.97;;;13.55
14666;BMP280;7420;53.574;10.040;2023-02-28T13:09:20;102895.19;;;14.56
14666;BMP280;7420;53.574;10.040;2023-02-28T13:11:53;102894.97;;;13.54
14666;BMP280;7420;53.574;10.040;2023-02-28T13:19:34;102885.84;;;15.95
14666;BMP280;7420;53.574;10.040;2023-02-28T13:22:01;102884.63;;;15.77
14666;BMP280;7420;53.574;10.040;2023-02-28T13:29:42;102887.16;;;16.54
14666;BMP280;7420;53.574;10.040;2023-02-28T13:34:41;102893.50;;;17.61
14666;BMP280;7420;53.574;10.040;2023-02-28T13:39:54;102898.63;;;19.24
14666;BMP280;7420;53.574;10.040;2023-02-28T13:42:35;102899.84;;;19.72
14666;BMP280;7420;53.574;10.040;2023-02-28T13:47:33;102918.47;;;23.73
14666;BMP280;7420;53.574;10.040;2023-02-28T13:50:39;102928.97;;;24.09
14666;BMP280;7420;53.574;10.040;2023-02-28T14:04:19;102924.25;;;27.69
14666;BMP280;7420;53.574;10.040;2023-02-28T14:06:51;102924.63;;;26.07
14666;BMP280;7420;53.574;10.040;2023-02-28T14:09:29;102928.00;;;26.97
14666;BMP280;7420;53.574;10.040;2023-02-28T14:11:55;102937.06;;;26.61
14666;BMP280;7420;53.574;10.040;2023-02-28T14:17:03;102919.50;;;26.89
14666;BMP280;7420;53.574;10.040;2023-02-28T14:19:31;102933.69;;;27.37
14666;BMP280;7420;53.574;10.040;2023-02-28T14:35:12;102923.66;;;27.62
14666;BMP280;7420;53.574;10.040;2023-02-28T14:37:41;102925.50;;;27.42
14666;BMP280;7420;53.574;10.040;2023-02-28T14:40:28;102916.56;;;26.22
14666;BMP280;7420;53.574;10.040;2023-02-28T14:42:57;102917.56;;;26.11
14666;BMP280;7420;53.574;10.040;2023-02-28T14:45:23;102908.72;;;24.17
14666;BMP280;7420;53.574;10.040;2023-02-28T14:47:50;102910.44;;;24.72
14666;BMP280;7420;53.574;10.040;2023-02-28T14:50:26;102917.34;;;25.86
14666;BMP280;7420;53.574;10.040;2023-02-28T14:52:54;102918.22;;;25.70
14666;BMP280;7420;53.574;10.040;2023-02-28T14:55:25;102926.34;;;27.52
14666;BMP280;7420;53.574;10.040;2023-02-28T15:00:27;102909.63;;;24.55
14666;BMP280;7420;53.574;10.040;2023-02-28T15:02:53;102894.22;;;24.44
14666;BMP280;7420;53.574;10.040;2023-02-28T15:10:27;102898.03;;;25.40
14666;BMP280;7420;53.574;10.040;2023-02-28T15:12:58;102891.91;;;23.75
14666;BMP280;7420;53.574;10.040;2023-02-28T15:15:27;102889.97;;;23.43
14666;BMP280;7420;53.574;10.040;2023-02-28T15:17:56;102882.84;;;23.98
14666;BMP280;7420;53.574;10.040;2023-02-28T15:20:23;102865.81;;;21.70
14666;BMP280;7420;53.574;10.040;2023-02-28T15:22:50;102868.16;;;20.83
14666;BMP280;7420;53.574;10.040;2023-02-28T15:25:19;102865.78;;;20.93
14666;BMP280;7420;53.574;10.040;2023-02-28T15:27:48;102859.06;;;20.78
14666;BMP280;7420;53.574;10.040;2023-02-28T15:30:21;102855.06;;;20.62
14666;BMP280;7420;53.574;10.040;2023-02-28T15:33:07;102856.31;;;20.42
14666;BMP280;7420;53.574;10.040;2023-02-28T15:35:42;102850.03;;;20.66
14666;BMP280;7420;53.574;10.040;2023-02-28T15:38:22;102855.53;;;21.60
14666;BMP280;7420;53.574;10.040;2023-02-28T15:40:53;102856.34;;;21.61
14666;BMP280;7420;53.574;10.040;2023-02-28T15:43:36;102856.53;;;21.77
14666;BMP280;7420;53.574;10.040;2023-02-28T15:46:06;102843.25;;;20.99
14666;BMP280;7420;53.574;10.040;2023-02-28T15:48:52;102840.44;;;18.97
14666;BMP280;7420;53.574;10.040;2023-02-28T15:51:39;102834.59;;;18.44
14666;BMP280;7420;53.574;10.040;2023-02-28T15:54:12;102815.13;;;17.57
14666;BMP280;7420;53.574;10.040;2023-02-28T15:56:45;102827.53;;;17.58
14666;BMP280;7420;53.574;10.040;2023-02-28T15:59:18;102823.06;;;17.25
14666;BMP280;7420;53.574;10.040;2023-02-28T16:01:43;102815.50;;;16.00
14666;BMP280;7420;53.574;10.040;2023-02-28T16:04:15;102810.91;;;16.21
14666;BMP280;7420;53.574;10.040;2023-02-28T16:06:46;102806.78;;;15.14
14666;BMP280;7420;53.574;10.040;2023-02-28T16:09:14;102780.97;;;13.69
14666;BMP280;7420;53.574;10.040;2023-02-28T16:11:48;102790.97;;;10.94
14666;BMP280;7420;53.574;10.040;2023-02-28T16:14:22;102782.78;;;9.95
14666;BMP280;7420;53.574;10.040;2023-02-28T16:16:52;102777.50;;;9.25
14666;BMP280;7420;53.574;10.040;2023-02-28T16:19:18;102779.91;;;8.84
14666;BMP280;7420;53.574;10.040;2023-02-28T16:21:44;102788.75;;;8.75
14666;BMP280;7420;53.574;10.040;2023-02-28T16:24:10;102780.31;;;8.53
14666;BMP280;7420;53.574;10.040;2023-02-28T16:26:36;102791.31;;;8.31
14666;BMP280;7420;53.574;10.040;2023-02-28T16:29:03;102795.81;;;8.11
14666;BMP280;7420;53.574;10.040;2023-02-28T16:31:28;102792.41;;;8.28
14666;BMP280;7420;53.574;10.040;2023-02-28T16:33:54;102794.25;;;8.28
14666;BMP280;7420;53.574;10.040;2023-02-28T16:36:22;102796.78;;;8.20
14666;BMP280;7420;53.574;10.040;2023-02-28T16:38:48;102799.72;;;8.17